createdAt,value
2023-05-14T00:04:26.761Z,96304.72
2023-05-14T00:09:30.305Z,96294.19
2023-05-14T00:14:34.472Z,96292.56
2023-05-14T00:19:37.671Z,96288.22
2023-05-14T00:24:40.692Z,96286.31
2023-05-14T00:29:45.654Z,96284.44
2023-05-14T00:34:48.484Z,96275.75
2023-05-14T00:39:51.324Z,96275.75
2023-05-14T00:44:55.539Z,96273.31
2023-05-14T00:49:58.667Z,96266.03
2023-05-14T00:55:04.460Z,96260.88
2023-05-14T01:00:12.460Z,96260.88
2023-05-14T01:05:15.421Z,96251.13
2023-05-14T01:10:23.204Z,96250.31
2023-05-14T01:15:29.921Z,96252.22
2023-05-14T01:20:32.834Z,96247.91
2023-05-14T01:25:36.991Z,96246.00
2023-05-14T01:30:45.849Z,96239.78
2023-05-14T01:35:49.455Z,96237.88
2023-05-14T01:40:54.677Z,96235.16
2023-05-14T01:45:57.591Z,96241.94
2023-05-14T01:51:00.495Z,96234.38
2023-05-14T01:56:04.870Z,96241.16
2023-05-14T02:01:07.747Z,96235.97
2023-05-14T02:06:10.744Z,96239.22
2023-05-14T02:11:14.935Z,96234.34
2023-05-14T02:16:19.137Z,96238.94
2023-05-14T02:21:22.021Z,96238.69
2023-05-14T02:26:26.395Z,96234.63
2023-05-14T02:31:29.502Z,96231.66
2023-05-14T02:36:32.318Z,96222.69
2023-05-14T02:41:36.713Z,96232.75
2023-05-14T02:46:39.604Z,96222.19
2023-05-14T02:51:42.474Z,96217.84
2023-05-14T02:56:47.103Z,96227.59
2023-05-14T03:01:51.265Z,96226.78
2023-05-14T03:06:54.568Z,96225.16
2023-05-14T03:11:58.826Z,96227.06
2023-05-14T03:17:01.726Z,96224.38
2023-05-14T03:22:04.882Z,96215.94
2023-05-14T03:27:09.110Z,96214.31
2023-05-14T03:32:11.915Z,96222.72
2023-05-14T03:37:14.764Z,96212.97
2023-05-14T03:42:18.932Z,96221.94
2023-05-14T03:47:22.161Z,96213.25
2023-05-14T03:52:25.049Z,96219.50
2023-05-14T03:57:29.716Z,96214.91
2023-05-14T04:02:32.583Z,96207.84
2023-05-14T04:07:36.352Z,96215.16
2023-05-14T04:12:42.317Z,96209.75
2023-05-14T04:17:45.422Z,96206.22
2023-05-14T04:22:48.257Z,96218.16
2023-05-14T04:27:52.402Z,96211.63
2023-05-14T04:32:55.680Z,96212.72
2023-05-14T04:37:58.918Z,96223.56
2023-05-14T04:43:03.105Z,96224.38
2023-05-14T04:48:07.908Z,96220.84
2023-05-14T04:53:11.117Z,96225.19
2023-05-14T04:58:16.596Z,96231.69
2023-05-14T05:03:19.472Z,96230.59
2023-05-14T05:08:23.037Z,96235.22
2023-05-14T05:13:28.157Z,96237.94
2023-05-14T05:18:30.992Z,96240.63
2023-05-14T05:23:34.642Z,96237.94
2023-05-14T05:28:38.790Z,96242.25
2023-05-14T05:33:42.006Z,96255.78
2023-05-14T05:38:45.708Z,96254.97
2023-05-14T05:43:49.858Z,96254.97
2023-05-14T05:48:53.269Z,96247.94
2023-05-14T05:53:56.104Z,96252.53
2023-05-14T05:59:00.537Z,96254.16
2023-05-14T06:04:04.478Z,96253.34
2023-05-14T06:09:08.950Z,96251.97
2023-05-14T06:14:13.141Z,96245.75
2023-05-14T06:19:16.124Z,96252.81
2023-05-14T06:24:20.070Z,96247.09
2023-05-14T06:29:24.276Z,96247.66
2023-05-14T06:34:27.603Z,96251.16
2023-05-14T06:39:30.975Z,96257.38
2023-05-14T06:44:35.191Z,96251.41
2023-05-14T06:49:38.293Z,96254.94
2023-05-14T06:54:42.538Z,96251.16
2023-05-14T06:59:48.483Z,96259.53
2023-05-14T07:04:51.326Z,96258.75
2023-05-14T07:09:54.342Z,96259.25
2023-05-14T07:14:59.862Z,96264.69
2023-05-14T07:20:02.816Z,96247.06
2023-05-14T07:25:06.274Z,96252.72
2023-05-14T07:30:11.153Z,96249.75
2023-05-14T07:35:13.999Z,96254.88
2023-05-14T07:40:17.165Z,96252.69
2023-05-14T07:45:21.378Z,96249.44
2023-05-14T07:50:24.592Z,96253.78
2023-05-14T07:55:27.651Z,96254.28
2023-05-14T08:00:31.813Z,96240.75
2023-05-14T08:05:34.746Z,96259.97
2023-05-14T08:10:39.658Z,96245.56
2023-05-14T08:15:44.008Z,96239.59
2023-05-14T08:20:47.044Z,96232.22
2023-05-14T08:25:49.948Z,96239.28
2023-05-14T08:30:54.138Z,96228.16
2023-05-14T08:35:58.281Z,96235.50
2023-05-14T08:41:01.534Z,96233.88
2023-05-14T08:46:06.431Z,96223.28
2023-05-14T08:51:09.440Z,96218.66
2023-05-14T08:56:13.102Z,96233.84
2023-05-14T09:01:17.547Z,96225.41
2023-05-14T09:06:21.458Z,96230.56
2023-05-14T09:11:24.714Z,96226.75
2023-05-14T09:16:29.311Z,96209.38
2023-05-14T09:21:33.523Z,96210.22
2023-05-14T09:26:36.697Z,96206.69
2023-05-14T09:31:41.163Z,96217.25
2023-05-14T09:36:44.073Z,96213.44
2023-05-14T09:41:46.866Z,96212.06
2023-05-14T09:46:51.588Z,96212.63
2023-05-14T09:51:55.515Z,96215.84
2023-05-14T09:56:58.654Z,96210.16
2023-05-14T10:02:03.246Z,96207.44
2023-05-14T10:07:06.140Z,96205.00
2023-05-14T10:12:09.480Z,96206.38
2023-05-14T10:17:18.419Z,96196.09
2023-05-14T10:22:24.425Z,96198.25
2023-05-14T10:27:27.727Z,96190.34
2023-05-14T10:32:37.980Z,96193.03
2023-05-14T10:37:40.911Z,96193.53
2023-05-14T10:42:44.346Z,96188.13
2023-05-14T10:47:49.501Z,96181.63
2023-05-14T10:52:52.414Z,96174.00
2023-05-14T10:57:55.262Z,96174.00
2023-05-14T11:02:59.792Z,96159.88
2023-05-14T11:08:05.082Z,96159.06
2023-05-14T11:13:07.981Z,96157.97
2023-05-14T11:18:12.544Z,96150.94
2023-05-14T11:23:15.820Z,96141.47
2023-05-14T11:28:18.683Z,96140.66
2023-05-14T11:33:22.877Z,96144.19
2023-05-14T11:38:25.661Z,96137.38
2023-05-14T11:43:29.401Z,96129.25
2023-05-14T11:48:34.003Z,96126.16
2023-05-14T11:53:36.854Z,96124.28
2023-05-14T11:58:39.709Z,96127.53
2023-05-14T12:03:43.961Z,96117.81
2023-05-14T12:08:49.319Z,96107.28
2023-05-14T12:13:52.149Z,96113.25
2023-05-14T12:19:00.976Z,96115.16
2023-05-14T12:24:03.877Z,96110.25
2023-05-14T12:29:07.828Z,96102.06
2023-05-14T12:34:11.992Z,96096.28
2023-05-14T12:39:16.296Z,96098.72
2023-05-14T12:44:19.757Z,96100.69
2023-05-14T12:49:24.053Z,96099.69
2023-05-14T12:54:27.131Z,96093.47
2023-05-14T12:59:29.985Z,96104.38
2023-05-14T13:04:34.192Z,96117.69
2023-05-14T13:09:37.194Z,96124.50
2023-05-14T13:14:40.004Z,96122.84
2023-05-14T13:19:44.184Z,96115.56
2023-05-14T13:24:47.278Z,96104.94
2023-05-14T13:29:50.064Z,96113.03
2023-05-14T13:34:54.225Z,96109.72
2023-05-14T13:39:57.094Z,96099.44
2023-05-14T13:45:00.046Z,96098.03
2023-05-14T13:50:04.623Z,96093.84
2023-05-14T13:55:08.591Z,96077.03
2023-05-14T14:00:12.436Z,96082.13
2023-05-14T14:05:16.915Z,96084.00
2023-05-14T14:10:19.825Z,96083.59
2023-05-14T14:15:23.050Z,96082.56
2023-05-14T14:20:27.278Z,96069.28
2023-05-14T14:25:30.174Z,96061.91
2023-05-14T14:30:33.447Z,96062.81
2023-05-14T14:35:38.004Z,96052.78
2023-05-14T14:40:40.887Z,96054.72
2023-05-14T14:45:46.838Z,96061.94
2023-05-14T14:50:52.682Z,96074.81
2023-05-14T14:55:55.626Z,96070.38
2023-05-14T15:00:59.143Z,96074.00
2023-05-14T15:06:03.308Z,96069.25
2023-05-14T15:11:07.209Z,96070.13
2023-05-14T15:16:10.136Z,96067.69
2023-05-14T15:21:15.060Z,96063.31
2023-05-14T15:26:17.977Z,96058.84
2023-05-14T15:31:20.808Z,96066.69
2023-05-14T15:36:25.010Z,96069.13
2023-05-14T15:41:28.747Z,96069.16
2023-05-14T15:46:32.191Z,96075.16
2023-05-14T15:51:38.203Z,96069.66
2023-05-14T15:56:41.090Z,96066.66
2023-05-14T16:01:44.426Z,96070.00
2023-05-14T16:06:48.741Z,96073.44
2023-05-14T16:11:51.649Z,96072.50
2023-05-14T16:16:54.523Z,96065.19
2023-05-14T16:21:58.778Z,96067.31
2023-05-14T16:27:01.764Z,96065.81
2023-05-14T16:32:04.644Z,96065.59
2023-05-14T16:37:10.181Z,96061.97
2023-05-14T16:42:14.116Z,96064.91
2023-05-14T16:47:17.126Z,96064.00
2023-05-14T16:52:21.298Z,96059.66
2023-05-14T16:57:24.233Z,96066.97
2023-05-14T17:02:27.056Z,96076.31
2023-05-14T17:07:32.160Z,96081.66
2023-05-14T17:12:35.419Z,96083.06
2023-05-14T17:17:38.450Z,96081.97
2023-05-14T17:22:42.640Z,96073.25
2023-05-14T17:27:45.645Z,96080.28
2023-05-14T17:32:51.024Z,96084.97
2023-05-14T17:37:58.424Z,96095.84
2023-05-14T17:43:02.674Z,96096.53
2023-05-14T17:48:06.081Z,96103.50
2023-05-14T17:53:10.298Z,96097.09
2023-05-14T17:58:14.367Z,96093.50
2023-05-14T18:03:17.478Z,96107.22
2023-05-14T18:08:21.725Z,96107.38
2023-05-14T18:13:24.558Z,96105.59
2023-05-14T18:18:27.446Z,96107.84
2023-05-14T18:23:31.701Z,96118.53
2023-05-14T18:28:34.603Z,96116.97
2023-05-14T18:33:38.382Z,96119.47
2023-05-14T18:38:42.630Z,96108.66
2023-05-14T18:43:45.413Z,96113.84
2023-05-14T18:48:48.252Z,96122.84
2023-05-14T18:53:52.409Z,96125.63
2023-05-14T18:58:55.354Z,96138.94
2023-05-14T19:03:58.222Z,96151.75
2023-05-14T19:09:02.505Z,96171.03
2023-05-14T19:14:05.392Z,96174.63
2023-05-14T19:19:08.442Z,96184.13
2023-05-14T19:24:12.653Z,96188.22
2023-05-14T19:29:15.550Z,96191.78
2023-05-14T19:34:18.337Z,96204.81
2023-05-14T19:39:22.553Z,96197.25
2023-05-14T19:44:25.396Z,96217.34
2023-05-14T19:49:28.534Z,96220.31
2023-05-14T19:54:32.705Z,96241.50
2023-05-14T19:59:35.663Z,96256.41
2023-05-14T20:04:40.052Z,96262.38
2023-05-14T20:09:44.414Z,96267.28
2023-05-14T20:14:47.268Z,96278.91
2023-05-14T20:19:50.264Z,96299.25
2023-05-14T20:24:54.721Z,96290.63
2023-05-14T20:29:57.507Z,96288.44
2023-05-14T20:35:02.018Z,96287.13
2023-05-14T20:40:12.187Z,96284.44
2023-05-14T20:45:15.031Z,96286.59
2023-05-14T20:50:18.762Z,96283.09
2023-05-14T20:55:23.367Z,96283.38
2023-05-14T21:00:26.739Z,96279.31
2023-05-14T21:05:31.353Z,96280.41
2023-05-14T21:10:35.526Z,96253.84
2023-05-14T21:15:38.445Z,96266.63
2023-05-14T21:20:42.088Z,96266.06
2023-05-14T21:25:46.500Z,96262.00
2023-05-14T21:30:49.936Z,96254.69
2023-05-14T21:35:52.780Z,96241.69
2023-05-14T21:40:56.994Z,96243.91
2023-05-14T21:45:59.775Z,96249.31
2023-05-14T21:51:02.629Z,96246.09
2023-05-14T21:56:08.065Z,96240.94
2023-05-14T22:01:11.543Z,96244.75
2023-05-14T22:06:14.500Z,96246.63
2023-05-14T22:11:18.668Z,96236.06
2023-05-14T22:16:22.296Z,96235.28
2023-05-14T22:21:25.206Z,96232.84
2023-05-14T22:26:29.469Z,96238.25
2023-05-14T22:31:32.342Z,96233.94
2023-05-14T22:36:35.231Z,96229.59
2023-05-14T22:41:39.374Z,96222.56
2023-05-14T22:46:43.848Z,96214.72
2023-05-14T22:51:46.789Z,96210.41
2023-05-14T22:56:51.322Z,96213.09
2023-05-14T23:01:54.208Z,96199.84
2023-05-14T23:06:58.112Z,96209.84
2023-05-14T23:12:02.455Z,96205.00
2023-05-14T23:17:06.074Z,96206.63
2023-05-14T23:22:08.856Z,96213.13
2023-05-14T23:27:13.224Z,96199.88
2023-05-14T23:32:16.308Z,96197.97
2023-05-14T23:37:19.333Z,96200.97
2023-05-14T23:42:25.294Z,96209.38
2023-05-14T23:47:28.187Z,96193.09
2023-05-14T23:52:31.054Z,96195.31
2023-05-14T23:57:35.392Z,96208.03
